Time;durP1;ratioP1;P1;durP2;ratioP2;P2;SDS_P1;SDS_P2;PMS_P1;PMS_P2;Temp;Humidity;BMP_temperature;BMP_pressure;BME280_temperature;BME280_humidity;BME280_pressure;Samples;Min_cycle;Max_cycle;Signal;HPM_P1;HPM_P2
2022/07/11 05:03:27;;;;;;;9.40;3.53;;;16.80;91.10;;;;;;4961178;23;20045;-78
2022/07/11 05:05:52;;;;;;;15.95;6.40;;;16.70;91.10;;;;;;4886480;29;20025;-77
2022/07/11 05:08:18;;;;;;;6.38;3.17;;;16.70;91.20;;;;;;4887597;29;20042;-77
2022/07/11 05:10:44;;;;;;;7.22;2.47;;;16.70;91.30;;;;;;4886763;29;20033;-78
2022/07/11 05:13:10;;;;;;;4.47;2.30;;;16.70;91.60;;;;;;4887714;29;20023;-77
2022/07/11 05:15:37;;;;;;;4.88;2.38;;;16.70;91.80;;;;;;4893647;29;20048;-79
2022/07/11 05:18:03;;;;;;;7.72;2.70;;;16.90;91.80;;;;;;4908587;29;20076;-78
2022/07/11 05:20:29;;;;;;;5.97;3.22;;;17.10;91.50;;;;;;4892569;29;20039;-79
2022/07/11 05:22:54;;;;;;;7.15;2.95;;;17.30;91.40;;;;;;4909446;29;20199;-79
2022/07/11 05:25:20;;;;;;;11.82;3.22;;;17.50;90.80;;;;;;4908562;29;20322;-78
2022/07/11 05:27:46;;;;;;;9.80;3.47;;;17.70;90.30;;;;;;4909430;29;20028;-79
2022/07/11 05:30:11;;;;;;;7.88;2.55;;;17.80;90.30;;;;;;4909274;29;20218;-78
2022/07/11 05:32:37;;;;;;;8.32;2.67;;;17.90;90.00;;;;;;4909202;29;20032;-79
2022/07/11 05:35:04;;;;;;;8.57;2.80;;;18.00;89.50;;;;;;4909299;29;20037;-78
2022/07/11 05:37:31;;;;;;;5.60;2.83;;;18.00;89.70;;;;;;4908859;29;20301;-79
2022/07/11 05:39:56;;;;;;;6.03;2.40;;;18.20;89.40;;;;;;4909465;29;20093;-78
2022/07/11 05:42:22;;;;;;;5.70;2.33;;;18.30;89.30;;;;;;4908397;29;20036;-80
2022/07/11 05:44:49;;;;;;;8.13;2.85;;;18.40;88.60;;;;;;4908892;29;20040;-79
2022/07/11 05:47:15;;;;;;;5.95;2.63;;;18.60;87.80;;;;;;4908894;29;20048;-79
2022/07/11 05:49:47;;;;;;;5.00;2.25;;;18.70;87.50;;;;;;4892246;29;20310;-80
2022/07/11 05:52:13;;;;;;;7.30;3.15;;;18.80;87.10;;;;;;4909447;29;20056;-79
2022/07/11 05:54:38;;;;;;;6.88;2.50;;;18.80;86.50;;;;;;4908939;29;20036;-78
2022/07/11 05:57:04;;;;;;;4.32;2.13;;;18.90;86.40;;;;;;4908824;29;20033;-79
2022/07/11 05:59:30;;;;;;;6.80;2.58;;;18.90;86.60;;;;;;4908949;29;20028;-79
2022/07/11 06:01:56;;;;;;;6.05;2.30;;;19.00;86.20;;;;;;4907579;29;20063;-80
2022/07/11 06:04:22;;;;;;;4.88;2.22;;;19.10;86.00;;;;;;4908897;29;20190;-79
2022/07/11 06:06:48;;;;;;;4.72;2.33;;;18.90;85.70;;;;;;4907557;29;20209;-79
2022/07/11 06:09:14;;;;;;;4.88;2.17;;;18.80;86.40;;;;;;4908491;29;20088;-80
2022/07/11 06:11:40;;;;;;;6.07;2.17;;;18.90;86.50;;;;;;4907255;29;20020;-79
2022/07/11 06:14:07;;;;;;;6.28;2.58;;;19.10;86.00;;;;;;4907037;29;20033;-78
2022/07/11 06:16:35;;;;;;;4.75;2.47;;;19.20;85.60;;;;;;4908083;29;20059;-81
2022/07/11 06:19:02;;;;;;;5.45;2.20;;;19.30;85.30;;;;;;4908513;29;20091;-74
2022/07/11 06:21:28;;;;;;;5.35;2.45;;;19.40;84.70;;;;;;4908013;29;20172;-76
2022/07/11 06:24:03;;;;;;;5.75;2.42;;;19.40;84.70;;;;;;4891821;29;20032;-79
2022/07/11 06:26:30;;;;;;;5.38;2.72;;;19.40;84.60;;;;;;4890101;29;20043;-75
2022/07/11 06:28:57;;;;;;;6.32;3.00;;;19.50;84.20;;;;;;4908135;29;20032;-76
2022/07/11 06:31:23;;;;;;;6.97;2.42;;;19.60;83.90;;;;;;4907639;29;20064;-76
2022/07/11 06:33:54;;;;;;;4.35;2.40;;;19.70;83.80;;;;;;4908451;29;20033;-77
2022/07/11 06:36:22;;;;;;;5.57;3.03;;;19.70;83.50;;;;;;4916742;29;20044;-75
2022/07/11 06:38:50;;;;;;;;;;;19.80;83.60;;;;;;4914003;29;20230;-76
2022/07/11 06:41:19;;;;;;;5.85;2.72;;;19.80;83.20;;;;;;4908196;29;20003;-76
2022/07/11 06:43:47;;;;;;;5.38;2.42;;;19.80;83.50;;;;;;4907900;29;20374;-77
2022/07/11 06:46:15;;;;;;;4.75;2.75;;;19.90;83.40;;;;;;4915190;29;20040;-75
2022/07/11 06:48:41;;;;;;;6.15;2.58;;;20.00;82.80;;;;;;4914764;29;20048;-74
2022/07/11 06:51:07;;;;;;;4.65;2.67;;;20.20;82.50;;;;;;4915039;29;20044;-73
2022/07/11 06:53:36;;;;;;;7.38;2.25;;;20.50;81.40;;;;;;4913163;29;20043;-75
2022/07/11 06:56:01;;;;;;;5.88;2.63;;;20.70;80.80;;;;;;4907216;29;20036;-75
2022/07/11 06:58:33;;;;;;;6.75;2.35;;;20.60;80.40;;;;;;4908081;29;20037;-75
2022/07/11 07:01:05;;;;;;;5.35;2.45;;;20.80;80.50;;;;;;4907516;29;20112;-74
2022/07/11 07:03:33;;;;;;;7.07;3.00;;;20.80;80.40;;;;;;4907343;29;20164;-76
2022/07/11 07:05:59;;;;;;;4.88;2.75;;;20.80;79.50;;;;;;4907823;29;20278;-75
2022/07/11 07:08:26;;;;;;;4.90;2.35;;;20.90;79.70;;;;;;4906670;29;20037;-75
2022/07/11 07:10:53;;;;;;;4.72;2.63;;;20.90;80.30;;;;;;4907368;29;20036;-75
2022/07/11 07:13:28;;;;;;;6.40;2.45;;;20.80;79.80;;;;;;4913743;29;20037;-75
2022/07/11 07:15:55;;;;;;;4.65;2.30;;;20.80;79.80;;;;;;4910856;29;20229;-75
2022/07/11 07:18:21;;;;;;;4.80;2.42;;;20.80;79.60;;;;;;4908573;29;20340;-75
2022/07/11 07:20:47;;;;;;;4.72;2.33;;;21.00;79.00;;;;;;4915293;29;20052;-78
2022/07/11 07:23:16;;;;;;;5.35;2.17;;;21.40;78.10;;;;;;4906266;29;20036;-76
2022/07/11 07:25:45;;;;;;;6.10;2.10;;;21.60;77.60;;;;;;4906027;29;20380;-75
2022/07/11 07:28:11;;;;;;;;;;;21.80;77.00;;;;;;4907658;29;20025;-75
2022/07/11 07:30:42;;;;;;;5.18;1.92;;;22.00;76.60;;;;;;4923757;29;20077;-75
2022/07/11 07:33:11;;;;;;;5.03;1.90;;;22.30;76.00;;;;;;4924966;29;20240;-75
2022/07/11 07:35:37;;;;;;;3.95;1.58;;;22.40;75.80;;;;;;4924646;29;20388;-76
2022/07/11 07:38:03;;;;;;;3.67;1.80;;;22.60;75.40;;;;;;4908494;29;20104;-74
2022/07/11 07:40:31;;;;;;;3.65;1.75;;;22.50;75.00;;;;;;4925452;29;20044;-76
2022/07/11 07:42:57;;;;;;;3.30;1.58;;;22.40;74.90;;;;;;4925159;29;20378;-77
2022/07/11 07:45:24;;;;;;;5.40;2.33;;;22.30;75.50;;;;;;4885042;29;20108;-74
2022/07/11 07:47:52;;;;;;;4.45;1.90;;;22.30;75.10;;;;;;4887791;29;20053;-73
2022/07/11 07:50:18;;;;;;;;;;;22.70;74.50;;;;;;4887472;29;20040;-74
2022/07/11 07:52:46;;;;;;;3.75;1.90;;;22.90;73.70;;;;;;4886988;29;19915;-75
2022/07/11 07:55:13;;;;;;;;;;;22.70;73.60;;;;;;4888935;29;20084;-77
2022/07/11 07:57:46;;;;;;;3.58;1.73;;;22.60;74.20;;;;;;4892035;29;20280;-80
2022/07/11 08:03:04;;;;;;;3.35;1.40;;;23.30;72.60;;;;;;4901018;29;20116;-76
2022/07/11 08:05:29;;;;;;;5.47;1.73;;;23.40;72.70;;;;;;4905814;29;20059;-77
2022/07/11 08:07:55;;;;;;;5.78;1.67;;;23.60;72.40;;;;;;4903881;29;20040;-75
2022/07/11 08:10:21;;;;;;;3.63;1.80;;;23.70;72.00;;;;;;4905492;29;20056;-76
2022/07/11 08:12:47;;;;;;;3.80;1.30;;;23.50;71.20;;;;;;4905180;29;20029;-74
2022/07/11 08:15:12;;;;;;;4.53;1.50;;;23.20;71.30;;;;;;4905170;29;20036;-74
2022/07/11 08:17:38;;;;;;;4.40;0.88;;;23.00;72.10;;;;;;4905061;29;20398;-74
2022/07/11 08:20:04;;;;;;;1.55;0.70;;;23.00;72.10;;;;;;4911477;29;20036;-75
2022/07/11 08:22:30;;;;;;;3.60;1.10;;;22.90;72.00;;;;;;4924662;29;20038;-73
2022/07/11 08:24:56;;;;;;;4.40;1.20;;;22.90;72.80;;;;;;4922888;29;20024;-75
2022/07/11 08:27:25;;;;;;;2.47;0.73;;;22.90;71.70;;;;;;4924318;29;20036;-74
2022/07/11 08:29:50;;;;;;;2.22;1.10;;;22.90;71.90;;;;;;4924046;29;20024;-75
2022/07/11 08:32:16;;;;;;;2.60;0.80;;;23.00;71.90;;;;;;4922238;29;20376;-75
2022/07/11 08:34:42;;;;;;;3.55;0.75;;;22.90;71.40;;;;;;4904902;29;20036;-76
2022/07/11 08:37:07;;;;;;;4.25;0.88;;;22.90;71.90;;;;;;4905367;29;20337;-77
2022/07/11 08:39:36;;;;;;;2.50;0.93;;;23.10;71.40;;;;;;4905235;29;20028;-79
2022/07/11 08:42:02;;;;;;;;;;;23.10;70.60;;;;;;4905164;29;20114;-78
2022/07/11 08:44:28;;;;;;;6.80;1.00;;;23.20;70.30;;;;;;4904398;29;19907;-78
2022/07/11 08:46:54;;;;;;;3.63;0.98;;;23.20;70.30;;;;;;4903198;29;20060;-77
2022/07/11 08:49:20;;;;;;;3.13;1.00;;;23.20;70.00;;;;;;4906743;29;20063;-76
2022/07/11 08:51:47;;;;;;;4.03;1.15;;;23.20;70.40;;;;;;4908831;29;20278;-76
2022/07/11 08:54:13;;;;;;;3.13;0.85;;;23.20;70.80;;;;;;4908941;29;20041;-76
2022/07/11 08:56:41;;;;;;;3.95;0.98;;;23.20;71.00;;;;;;4908712;29;20045;-77
2022/07/11 08:59:07;;;;;;;3.22;0.95;;;23.20;69.60;;;;;;4908963;29;20262;-77
2022/07/11 09:01:40;;;;;;;3.35;0.80;;;23.30;71.00;;;;;;4907856;29;20104;-77
2022/07/11 09:04:08;;;;;;;5.30;1.30;;;23.50;68.70;;;;;;4922505;29;20032;-77
2022/07/11 09:06:35;;;;;;;5.78;0.77;;;23.60;67.80;;;;;;4927919;29;20047;-76
2022/07/11 09:09:02;;;;;;;3.03;0.93;;;23.70;67.70;;;;;;4927946;29;20038;-77
2022/07/11 09:11:29;;;;;;;4.32;1.23;;;23.90;67.80;;;;;;4919931;29;20024;-77
2022/07/11 09:13:54;;;;;;;1.98;0.82;;;24.20;67.20;;;;;;4907983;29;20375;-76
2022/07/11 09:16:20;;;;;;;7.88;1.17;;;24.20;66.70;;;;;;4908229;29;20048;-77
2022/07/11 09:18:46;;;;;;;4.95;1.23;;;24.30;68.50;;;;;;4908104;29;20028;-76
2022/07/11 09:26:48;;;;;;;4.65;1.20;;;24.80;67.30;;;;;;4908024;29;20104;-77
2022/07/11 09:29:16;;;;;;;2.95;1.10;;;25.30;66.80;;;;;;4920578;29;20115;-76
2022/07/11 09:31:47;;;;;;;2.13;0.80;;;25.50;65.00;;;;;;4926322;29;20129;-77
2022/07/11 09:34:15;;;;;;;4.97;1.27;;;25.50;65.00;;;;;;4927328;29;20039;-77
2022/07/11 09:36:45;;;;;;;;;;;25.50;66.60;;;;;;4890701;29;20029;-79
2022/07/11 09:39:17;;;;;;;6.28;1.27;;;25.70;64.30;;;;;;4908269;29;19907;-74
2022/07/11 09:41:43;;;;;;;1.80;0.80;;;25.70;65.00;;;;;;4907930;29;20251;-75
2022/07/11 09:44:11;;;;;;;4.18;0.73;;;25.40;64.70;;;;;;4908108;29;20024;-73
2022/07/11 09:46:38;;;;;;;1.83;0.50;;;25.20;65.50;;;;;;4906514;29;20107;-74
2022/07/11 09:49:03;;;;;;;1.60;0.50;;;25.10;64.60;;;;;;4908205;29;20092;-75
2022/07/11 09:51:32;;;;;;;3.15;0.57;;;25.10;64.80;;;;;;4907926;29;20214;-77
2022/07/11 09:53:59;;;;;;;3.15;0.40;;;25.60;63.30;;;;;;4907205;29;20231;-73
2022/07/11 09:56:45;;;;;;;4.75;0.73;;;26.10;61.60;;;;;;4908074;29;20333;-74
2022/07/11 09:59:15;;;;;;;1.92;0.40;;;26.40;62.00;;;;;;4908087;29;20025;-74
2022/07/11 10:01:41;;;;;;;2.50;0.70;;;26.60;61.80;;;;;;4906545;29;20068;-74
2022/07/11 10:04:08;;;;;;;1.38;0.68;;;26.80;61.00;;;;;;4920703;29;20032;-75
2022/07/11 10:06:36;;;;;;;2.78;0.63;;;27.00;60.90;;;;;;4926760;29;20031;-75
2022/07/11 10:09:06;;;;;;;1.55;0.47;;;27.10;60.00;;;;;;4926622;29;20109;-73
2022/07/11 10:11:32;;;;;;;2.38;0.40;;;27.30;59.90;;;;;;4926620;29;20357;-74
2022/07/11 10:14:03;;;;;;;2.85;0.80;;;27.30;59.60;;;;;;4926381;29;20028;-74
2022/07/11 10:16:56;;;;;;;1.13;0.55;;;27.40;59.90;;;;;;4924056;29;20111;-74
2022/07/11 10:19:50;;;;;;;1.55;0.68;;;26.90;60.40;;;;;;4907798;29;20033;-73
2022/07/11 10:22:43;;;;;;;1.35;0.50;;;26.80;60.90;;;;;;4897046;29;20052;-74
2022/07/11 10:25:27;;;;;;;3.33;0.65;;;27.10;60.00;;;;;;4907659;29;20037;-72
2022/07/11 10:28:30;;;;;;;0.93;0.50;;;27.10;60.70;;;;;;4911921;29;20024;-74
2022/07/11 10:31:00;;;;;;;2.13;0.50;;;27.60;59.70;;;;;;4925631;29;20326;-75
2022/07/11 10:33:33;;;;;;;1.75;0.52;;;27.80;59.30;;;;;;4924521;29;20237;-75
2022/07/11 10:36:05;;;;;;;1.45;0.50;;;27.60;59.30;;;;;;4925874;29;20046;-75
2022/07/11 10:39:00;;;;;;;2.60;0.40;;;27.70;59.60;;;;;;4926553;29;20099;-73
2022/07/11 10:41:29;;;;;;;3.67;0.60;;;27.70;59.80;;;;;;4831341;29;20123;-74
2022/07/11 10:43:57;;;;;;;1.08;0.40;;;27.50;60.20;;;;;;4916046;29;20059;-74
2022/07/11 10:46:26;;;;;;;1.88;0.60;;;27.50;59.40;;;;;;4925610;29;20040;-77
2022/07/11 10:48:55;;;;;;;2.55;0.50;;;27.50;59.90;;;;;;4925728;29;20058;-74
2022/07/11 10:51:49;;;;;;;2.00;0.52;;;27.60;59.60;;;;;;4925800;29;20040;-74
2022/07/11 10:54:28;;;;;;;2.10;0.80;;;27.50;59.20;;;;;;4923658;29;20035;-74
2022/07/11 10:57:06;;;;;;;1.85;0.40;;;27.80;59.80;;;;;;4906373;29;20235;-74
2022/07/11 10:59:32;;;;;;;2.05;0.50;;;28.20;58.70;;;;;;4904497;29;20037;-74
2022/07/11 11:02:06;;;;;;;2.22;0.60;;;28.50;58.90;;;;;;4905799;29;20230;-75
2022/07/11 11:04:58;;;;;;;1.73;0.68;;;28.70;58.20;;;;;;4897326;29;20039;-73
2022/07/11 11:07:41;;;;;;;2.33;0.60;;;28.60;58.10;;;;;;4906635;29;20072;-74
2022/07/11 11:10:27;;;;;;;1.70;0.50;;;28.70;58.20;;;;;;4908092;29;20037;-75
2022/07/11 11:13:04;;;;;;;1.70;0.52;;;28.50;57.80;;;;;;4906765;29;20092;-75
2022/07/11 11:15:52;;;;;;;2.30;0.50;;;28.40;57.70;;;;;;4907061;29;20052;-77
2022/07/11 11:21:01;;;;;;;2.00;0.70;;;28.50;58.60;;;;;;4917533;29;20043;-75
2022/07/11 11:23:59;;;;;;;1.02;0.40;;;28.50;58.30;;;;;;4915218;29;20052;-75
2022/07/11 11:26:49;;;;;;;1.00;0.47;;;28.90;57.30;;;;;;4915070;29;20059;-74
2022/07/11 11:29:20;;;;;;;1.65;0.60;;;29.10;56.80;;;;;;4907733;29;20299;-73
2022/07/11 11:31:54;;;;;;;1.98;0.52;;;29.10;56.50;;;;;;4906502;29;20040;-74
2022/07/11 11:34:20;;;;;;;1.00;0.40;;;29.10;56.50;;;;;;4906467;29;20036;-74
2022/07/11 11:36:53;;;;;;;1.67;0.43;;;29.40;57.00;;;;;;4905914;29;20209;-74
2022/07/11 11:39:30;;;;;;;1.10;0.60;;;29.40;56.60;;;;;;4906323;29;20035;-71
2022/07/11 11:42:07;;;;;;;2.43;1.13;;;29.40;56.80;;;;;;4904694;29;20231;-71
2022/07/11 11:44:35;;;;;;;3.30;0.67;;;28.80;57.10;;;;;;4906438;29;20040;-72
2022/07/11 11:47:01;;;;;;;5.07;0.80;;;28.70;57.60;;;;;;4905182;29;20052;-73
2022/07/11 11:49:26;;;;;;;2.78;0.50;;;28.90;58.40;;;;;;4906104;29;20081;-73
2022/07/11 11:51:56;;;;;;;5.15;0.93;;;29.70;57.30;;;;;;4905638;29;20036;-73
2022/07/11 11:54:23;;;;;;;2.08;0.60;;;30.70;55.50;;;;;;4906101;29;20040;-73
2022/07/11 11:56:49;;;;;;;3.55;0.50;;;32.00;54.70;;;;;;4921629;29;20046;-73
2022/07/11 11:59:15;;;;;;;1.85;0.77;;;33.20;52.50;;;;;;4908717;29;20041;-73
2022/07/11 12:01:46;;;;;;;1.27;0.40;;;33.70;51.40;;;;;;4905248;29;20105;-73
2022/07/11 12:04:14;;;;;;;1.45;0.50;;;33.00;52.20;;;;;;4910732;29;20036;-73
2022/07/11 12:06:49;;;;;;;1.10;0.40;;;32.90;51.90;;;;;;4906442;29;20353;-73
2022/07/11 12:10:05;;;;;;;2.10;0.50;;;33.20;52.10;;;;;;4906479;29;20088;-73
2022/07/11 12:14:51;;;;;;;1.63;0.50;;;35.90;49.30;;;;;;4905688;29;20350;-73
2022/07/11 12:17:23;;;;;;;1.85;0.60;;;34.40;49.10;;;;;;4905326;29;20156;-73
2022/07/11 12:19:49;;;;;;;2.80;0.70;;;33.60;51.00;;;;;;4909521;29;20199;-74
2022/07/11 12:22:15;;;;;;;0.93;0.40;;;33.00;52.00;;;;;;4924618;29;20091;-73
2022/07/11 12:24:50;;;;;;;2.10;0.50;;;31.80;53.10;;;;;;4909968;29;20315;-73
2022/07/11 12:27:24;;;;;;;1.10;0.45;;;31.40;54.10;;;;;;4910095;29;20054;-72
2022/07/11 12:29:51;;;;;;;1.45;0.50;;;31.10;54.90;;;;;;4904141;29;20036;-72
2022/07/11 12:32:18;;;;;;;1.42;0.70;;;31.10;54.40;;;;;;4928015;29;20051;-71
2022/07/11 12:34:46;;;;;;;2.28;0.70;;;30.90;54.00;;;;;;4927753;29;20036;-71
2022/07/11 12:37:14;;;;;;;1.45;0.60;;;31.00;54.60;;;;;;4928721;29;20115;-71
2022/07/11 12:39:49;;;;;;;2.03;0.50;;;32.10;53.20;;;;;;4927960;29;20044;-71
2022/07/11 12:42:33;;;;;;;1.65;0.70;;;32.60;52.70;;;;;;4928202;29;20047;-71
2022/07/11 12:45:11;;;;;;;2.70;0.60;;;32.80;52.10;;;;;;4927832;29;20040;-71
2022/07/11 12:47:45;;;;;;;1.23;0.68;;;32.50;52.30;;;;;;4928303;29;20337;-71
2022/07/11 12:50:13;;;;;;;2.65;1.00;;;32.40;52.50;;;;;;4927859;29;20036;-71
2022/07/11 12:52:40;;;;;;;1.45;0.50;;;32.10;52.80;;;;;;4928031;29;20092;-71
2022/07/11 12:55:11;;;;;;;1.70;0.80;;;31.80;54.30;;;;;;4918339;29;20091;-71
2022/07/11 12:57:38;;;;;;;3.42;0.60;;;31.70;53.80;;;;;;4909068;29;20374;-71
2022/07/11 13:00:19;;;;;;;2.07;1.13;;;31.90;53.70;;;;;;4908444;29;20060;-71
2022/07/11 13:02:52;;;;;;;2.17;0.63;;;31.50;53.40;;;;;;4924764;29;20480;-69
2022/07/11 13:05:18;;;;;;;1.90;0.80;;;31.30;53.80;;;;;;4908979;29;20100;-70
2022/07/11 13:13:13;;;;;;;2.13;0.77;;;32.60;52.40;;;;;;4908919;29;20080;-71
2022/07/11 13:15:39;;;;;;;1.55;0.70;;;34.10;52.00;;;;;;4907979;29;20056;-71
2022/07/11 13:18:05;;;;;;;3.55;0.88;;;34.20;50.90;;;;;;4908043;29;20083;-71
2022/07/11 13:20:32;;;;;;;1.80;0.47;;;33.50;51.50;;;;;;4918396;29;20024;-70
2022/07/11 13:22:58;;;;;;;1.80;0.70;;;33.20;52.20;;;;;;4927376;29;20183;-70
2022/07/11 13:25:25;;;;;;;2.53;0.80;;;33.00;52.20;;;;;;4919025;29;20044;-72
2022/07/11 13:27:51;;;;;;;2.90;0.80;;;32.20;52.80;;;;;;4891150;29;20020;-71
2022/07/11 13:30:20;;;;;;;2.35;0.80;;;31.40;53.90;;;;;;4907426;29;20036;-73
2022/07/11 13:32:48;;;;;;;1.45;0.70;;;31.20;54.50;;;;;;4907953;29;20029;-71
2022/07/11 13:35:14;;;;;;;2.08;0.98;;;31.00;55.00;;;;;;4907970;29;20036;-71
2022/07/11 13:37:40;;;;;;;5.63;1.00;;;31.20;54.50;;;;;;4908585;29;20028;-72
2022/07/11 13:40:12;;;;;;;2.15;1.00;;;31.40;54.80;;;;;;4908083;29;20040;-72
2022/07/11 13:42:45;;;;;;;1.42;0.70;;;31.50;54.10;;;;;;4908359;29;20331;-71
2022/07/11 13:45:12;;;;;;;2.58;1.10;;;31.20;54.60;;;;;;4907532;29;20036;-71
2022/07/11 13:47:38;;;;;;;2.63;0.88;;;31.10;55.20;;;;;;4908413;29;20215;-71
2022/07/11 13:50:04;;;;;;;3.05;1.10;;;31.20;55.00;;;;;;4907788;29;20035;-71
2022/07/11 13:52:30;;;;;;;4.00;0.90;;;31.10;55.10;;;;;;4907992;29;20092;-70
2022/07/11 13:54:59;;;;;;;1.50;0.80;;;30.90;54.70;;;;;;4907633;29;20378;-70
2022/07/11 13:57:25;;;;;;;5.32;0.90;;;30.90;55.30;;;;;;4906924;29;20036;-70
2022/07/11 13:59:51;;;;;;;3.53;1.13;;;31.10;55.30;;;;;;4907561;29;20087;-71
2022/07/11 14:02:24;;;;;;;2.08;0.98;;;31.10;55.00;;;;;;4906996;29;20064;-71
2022/07/11 14:04:50;;;;;;;5.60;1.20;;;30.90;55.30;;;;;;4888722;29;20029;-72
2022/07/11 14:07:16;;;;;;;3.28;1.20;;;30.50;55.80;;;;;;4889033;29;20223;-70
2022/07/11 14:09:43;;;;;;;3.95;1.00;;;30.60;56.20;;;;;;4888953;29;20068;-71
2022/07/11 14:12:09;;;;;;;2.10;1.10;;;30.30;56.30;;;;;;4888988;29;20040;-71
2022/07/11 14:14:35;;;;;;;3.30;0.80;;;30.30;56.30;;;;;;4889183;29;20040;-72
2022/07/11 14:17:05;;;;;;;4.40;1.27;;;30.30;56.30;;;;;;4888146;29;20052;-71
2022/07/11 14:19:37;;;;;;;4.38;1.27;;;30.50;56.00;;;;;;4892929;29;20041;-71
2022/07/11 14:22:05;;;;;;;4.53;1.23;;;30.20;56.20;;;;;;4926008;29;20039;-71
2022/07/11 14:24:34;;;;;;;;;;;29.90;56.40;;;;;;4927163;29;20099;-72
2022/07/11 14:27:02;;;;;;;3.67;1.13;;;29.60;56.80;;;;;;4921028;29;20078;-71
2022/07/11 14:29:29;;;;;;;2.15;1.00;;;29.50;57.50;;;;;;4907099;29;20048;-70
2022/07/11 14:31:55;;;;;;;2.08;1.23;;;29.40;57.80;;;;;;4906251;29;20045;-72
2022/07/11 14:34:21;;;;;;;2.97;1.10;;;29.30;58.00;;;;;;4907775;29;20111;-72
2022/07/11 14:36:50;;;;;;;4.80;1.00;;;29.30;58.00;;;;;;4906226;29;20037;-72
2022/07/11 14:39:16;;;;;;;3.63;1.20;;;29.50;57.60;;;;;;4907466;29;20083;-71
2022/07/11 14:41:46;;;;;;;2.83;1.48;;;29.70;57.70;;;;;;4907001;29;20335;-73
2022/07/11 14:44:12;;;;;;;1.95;0.90;;;29.50;58.60;;;;;;4906078;29;20037;-73
2022/07/11 14:46:37;;;;;;;4.38;1.23;;;29.70;57.90;;;;;;4906147;29;20059;-72
2022/07/11 14:49:05;;;;;;;2.25;0.90;;;30.50;57.30;;;;;;4906975;29;20036;-70
2022/07/11 14:51:35;;;;;;;2.97;1.00;;;31.90;54.90;;;;;;4907048;29;20314;-73
2022/07/11 14:54:04;;;;;;;5.22;1.17;;;32.50;53.50;;;;;;4906728;29;20159;-72
2022/07/11 14:56:29;;;;;;;3.63;1.30;;;33.70;52.00;;;;;;4907163;29;20103;-72
2022/07/11 14:58:55;;;;;;;4.90;0.90;;;33.90;51.90;;;;;;4906379;29;20126;-73
2022/07/11 15:01:21;;;;;;;1.88;0.80;;;34.30;51.80;;;;;;4906617;29;20056;-74
2022/07/11 15:03:51;;;;;;;2.95;1.00;;;34.40;51.10;;;;;;4917968;29;20044;-73
2022/07/11 15:06:20;;;;;;;6.28;1.10;;;35.30;50.90;;;;;;4926155;29;20024;-73
2022/07/11 15:14:15;;;;;;;2.10;1.00;;;34.70;50.80;;;;;;4925949;29;20040;-73
2022/07/11 15:16:42;;;;;;;1.27;0.68;;;34.20;51.40;;;;;;4925257;29;20040;-73
2022/07/11 15:19:08;;;;;;;2.63;0.90;;;33.80;51.70;;;;;;4924792;29;20024;-72
2022/07/11 15:21:34;;;;;;;3.15;1.02;;;33.40;52.10;;;;;;4907268;29;20203;-72
2022/07/11 15:24:00;;;;;;;3.53;1.13;;;32.80;52.80;;;;;;4906462;29;20071;-72
2022/07/11 15:26:27;;;;;;;2.17;1.05;;;32.10;53.50;;;;;;4906632;29;20330;-73
2022/07/11 15:28:56;;;;;;;3.70;1.60;;;31.10;54.80;;;;;;4906165;29;20040;-73
2022/07/11 15:31:25;;;;;;;2.88;1.20;;;30.30;56.10;;;;;;4917869;29;20219;-72
2022/07/11 15:33:51;;;;;;;1.88;1.23;;;30.30;56.20;;;;;;4924715;29;20024;-73
2022/07/11 15:36:18;;;;;;;2.40;1.40;;;30.60;55.80;;;;;;4925106;29;20039;-75
2022/07/11 15:38:47;;;;;;;3.67;1.33;;;30.60;56.00;;;;;;4925238;29;20040;-75
2022/07/11 15:41:16;;;;;;;2.88;1.20;;;33.00;53.80;;;;;;4923784;29;20028;-76
2022/07/11 15:43:44;;;;;;;2.15;0.98;;;36.50;50.20;;;;;;4925284;29;20044;-76
2022/07/11 15:46:10;;;;;;;1.92;0.77;;;38.80;47.50;;;;;;4921292;29;20345;-75
2022/07/11 15:48:37;;;;;;;1.58;0.73;;;40.50;45.80;;;;;;4906845;29;20076;-75
2022/07/11 15:51:03;;;;;;;2.78;0.80;;;41.40;44.60;;;;;;4907154;29;20032;-77
2022/07/11 15:53:28;;;;;;;2.25;0.60;;;42.40;43.80;;;;;;4906121;29;20357;-80
2022/07/11 15:55:54;;;;;;;1.75;0.63;;;42.80;44.10;;;;;;4906687;29;20040;-78
2022/07/11 15:58:21;;;;;;;1.90;0.60;;;43.60;43.00;;;;;;4903152;29;20358;-77
2022/07/11 16:00:48;;;;;;;1.88;0.50;;;44.50;41.90;;;;;;4887174;29;20036;-79
2022/07/11 16:03:14;;;;;;;1.25;0.55;;;44.10;41.70;;;;;;4902744;29;20120;-81
2022/07/11 16:05:40;;;;;;;2.33;0.90;;;43.10;42.10;;;;;;4907353;29;20036;-79
2022/07/11 16:08:06;;;;;;;3.22;0.60;;;40.90;43.10;;;;;;4906442;29;20040;-76
2022/07/11 16:10:31;;;;;;;1.65;0.77;;;39.60;44.50;;;;;;4907582;29;20100;-79
2022/07/11 16:12:57;;;;;;;2.25;0.75;;;40.30;44.70;;;;;;4907281;29;20041;-78
2022/07/11 16:15:24;;;;;;;1.75;0.80;;;41.20;43.80;;;;;;4906406;29;20083;-77
2022/07/11 16:17:50;;;;;;;3.08;0.90;;;41.50;43.50;;;;;;4906961;29;20024;-77
2022/07/11 16:20:16;;;;;;;2.40;0.77;;;42.50;42.50;;;;;;4906271;29;20044;-78
2022/07/11 16:22:42;;;;;;;2.22;0.70;;;42.80;42.80;;;;;;4906319;29;20279;-77
2022/07/11 16:25:09;;;;;;;2.88;1.00;;;43.10;42.40;;;;;;4906243;29;20041;-78
2022/07/11 16:27:35;;;;;;;2.63;0.70;;;43.00;42.40;;;;;;4906633;29;20016;-73
2022/07/11 16:30:03;;;;;;;3.65;0.80;;;43.50;42.00;;;;;;4911362;29;20031;-73
2022/07/11 16:32:30;;;;;;;1.90;0.70;;;42.40;42.30;;;;;;4916855;29;20040;-72
2022/07/11 16:34:56;;;;;;;1.50;0.80;;;40.60;43.50;;;;;;4905973;29;20037;-73
2022/07/11 16:37:22;;;;;;;2.60;1.00;;;38.60;45.30;;;;;;4906484;29;20468;-72
2022/07/11 16:45:20;;;;;;;1.98;0.90;;;36.00;48.80;;;;;;4905301;29;20037;-72
2022/07/11 16:47:47;;;;;;;2.80;0.97;;;36.20;47.40;;;;;;4906718;29;20040;-72
2022/07/11 16:50:13;;;;;;;4.03;1.27;;;35.80;48.30;;;;;;4906352;29;20070;-72
2022/07/11 16:52:39;;;;;;;2.38;1.00;;;36.50;47.70;;;;;;4906674;29;20036;-79
2022/07/11 16:55:05;;;;;;;4.28;0.90;;;36.70;47.20;;;;;;4905864;29;20033;-75
2022/07/11 16:57:31;;;;;;;1.60;0.80;;;36.60;47.20;;;;;;4889686;29;20040;-76
2022/07/11 16:59:59;;;;;;;5.25;1.10;;;36.10;47.60;;;;;;4904975;29;20043;-75
2022/07/11 17:02:24;;;;;;;1.67;0.90;;;35.40;48.00;;;;;;4904972;29;20104;-74
2022/07/11 17:04:50;;;;;;;2.90;0.90;;;34.30;49.40;;;;;;4906154;29;20036;-74
2022/07/11 17:07:17;;;;;;;2.15;1.08;;;33.90;49.80;;;;;;4906265;29;20037;-75
2022/07/11 17:09:43;;;;;;;2.60;0.77;;;34.50;49.40;;;;;;4906369;29;20021;-75
2022/07/11 17:12:10;;;;;;;3.67;1.10;;;35.80;48.40;;;;;;4909490;29;20029;-73
2022/07/11 17:14:36;;;;;;;2.75;1.02;;;35.70;48.40;;;;;;4909064;29;20036;-73
2022/07/11 17:17:02;;;;;;;1.95;0.90;;;36.70;47.60;;;;;;4908308;29;20111;-73
2022/07/11 17:19:28;;;;;;;2.75;0.80;;;36.80;46.80;;;;;;4909326;29;20037;-73
2022/07/11 17:21:54;;;;;;;2.58;0.77;;;36.00;47.70;;;;;;4909579;29;20080;-73
2022/07/11 17:24:20;;;;;;;3.55;0.88;;;36.20;47.50;;;;;;4909477;29;20032;-73
2022/07/11 17:26:46;;;;;;;1.63;0.80;;;35.20;47.90;;;;;;4910686;29;20044;-72
2022/07/11 17:29:12;;;;;;;5.78;1.10;;;33.80;49.20;;;;;;4911043;29;20133;-73
2022/07/11 17:31:39;;;;;;;2.47;1.17;;;32.70;51.00;;;;;;4924444;29;20064;-73
2022/07/11 17:34:06;;;;;;;5.20;1.35;;;32.30;51.80;;;;;;4910889;29;20052;-73
2022/07/11 17:36:35;;;;;;;3.75;1.10;;;31.80;52.20;;;;;;4908371;29;20070;-72
2022/07/11 17:39:04;;;;;;;3.78;1.40;;;31.10;53.30;;;;;;4907786;29;20040;-73
2022/07/11 17:41:30;;;;;;;2.00;1.00;;;31.70;52.90;;;;;;4908016;29;20045;-74
2022/07/11 17:43:55;;;;;;;2.90;0.90;;;32.60;51.70;;;;;;4908782;29;20104;-73
2022/07/11 17:46:21;;;;;;;3.80;0.88;;;32.90;50.60;;;;;;4907748;29;20040;-73
2022/07/11 17:48:47;;;;;;;2.05;0.77;;;32.60;50.40;;;;;;4909091;29;20032;-73
2022/07/11 17:51:12;;;;;;;2.20;0.80;;;32.60;50.70;;;;;;4908490;29;20028;-73
2022/07/11 17:53:38;;;;;;;1.55;0.70;;;33.20;50.70;;;;;;4908162;29;20246;-73
2022/07/11 17:56:05;;;;;;;1.85;0.90;;;34.30;49.20;;;;;;4908591;29;20036;-73
2022/07/11 17:58:31;;;;;;;2.08;1.00;;;35.10;49.20;;;;;;4892383;29;20043;-74
2022/07/11 18:00:57;;;;;;;2.53;1.27;;;35.80;48.10;;;;;;4907148;29;20052;-74
2022/07/11 18:03:24;;;;;;;4.88;0.85;;;36.50;47.20;;;;;;4915092;29;20052;-73
2022/07/11 18:05:49;;;;;;;1.95;0.70;;;37.30;46.40;;;;;;4926640;29;20229;-73
2022/07/11 18:08:15;;;;;;;1.50;0.80;;;37.50;46.20;;;;;;4918478;29;20025;-74
2022/07/11 18:10:44;;;;;;;1.95;0.88;;;37.80;45.90;;;;;;4907909;29;20092;-72
2022/07/11 18:13:15;;;;;;;1.73;1.13;;;37.80;45.90;;;;;;4907421;29;20036;-78
2022/07/11 18:15:44;;;;;;;2.65;0.90;;;37.60;46.00;;;;;;4907268;29;20060;-82
2022/07/11 18:18:10;;;;;;;2.75;1.15;;;37.60;46.20;;;;;;4906050;29;20271;-79
2022/07/11 18:20:36;;;;;;;1.90;0.88;;;37.30;46.30;;;;;;4908303;29;20044;-79
2022/07/11 18:23:02;;;;;;;2.78;1.15;;;36.90;46.80;;;;;;4908946;29;20037;-78
2022/07/11 18:25:30;;;;;;;2.50;1.20;;;36.90;47.10;;;;;;4907376;29;20040;-78
2022/07/11 18:27:56;;;;;;;2.75;1.05;;;36.10;47.50;;;;;;4907324;29;20048;-78